Kamen'-na-Obi, Russia
Current Conditions -  °F | °C
As of 7:00 AM on Monday 24 Nov 2014 (Local Time) from UNBB Reporting Station
Heavy Snow Heavy Snow  
Wind Chill:   Ceiling: 200
Heat Index: 21°   Visibility: 0.56mi
Dew Point: 18°   Wind: 31mph
Humidity: 86%   Direction: 270°W
Pressure: 29.59"   Gusts: NA
Location:  53.82°N, 81.27°E
Report Text: UNBB 240000Z 27014MPS 0900 R24/1300VP1500D +SN BLSN OVC002M06/M08 Q1002 NOSIG RMK QBB080 QFE730/0973 24551042
Loading
Personal Weather Stations






























Interactive Weather Map New forecast layout! Learn more

10-Day Weather Forecast

Advertisements
Track Severe Weather on mobile